createdAt,value
2023-09-09T00:03:57.284Z,20.49
2023-09-09T00:06:24.569Z,20.52
2023-09-09T00:08:51.794Z,20.52
2023-09-09T00:11:19.017Z,20.41
2023-09-09T00:13:46.955Z,20.39
2023-09-09T00:16:14.353Z,20.53
2023-09-09T00:18:41.562Z,20.62
2023-09-09T00:21:08.712Z,20.65
2023-09-09T00:23:36.293Z,20.55
2023-09-09T00:28:45.357Z,20.41
2023-09-09T00:31:13.580Z,20.32
2023-09-09T00:33:41.183Z,20.24
2023-09-09T00:36:11.185Z,20.29
2023-09-09T00:38:42.706Z,20.33
2023-09-09T00:41:20.206Z,20.41
2023-09-09T00:43:48.670Z,20.43
2023-09-09T00:46:17.952Z,20.35
2023-09-09T00:48:45.746Z,20.21
2023-09-09T00:51:14.173Z,20.14
2023-09-09T00:53:42.676Z,20.20
2023-09-09T00:56:11.493Z,20.16
2023-09-09T00:58:38.958Z,20.18
2023-09-09T01:01:06.751Z,20.16
2023-09-09T01:03:35.210Z,20.14
2023-09-09T01:06:06.799Z,20.04
2023-09-09T01:08:34.122Z,19.99
2023-09-09T01:11:01.351Z,19.94
2023-09-09T01:13:30.880Z,19.98
2023-09-09T01:15:58.284Z,19.98
2023-09-09T01:18:28.948Z,19.89
2023-09-09T01:21:11.302Z,19.88
2023-09-09T01:23:42.526Z,19.79
2023-09-09T01:26:10.154Z,19.77
2023-09-09T01:28:40.371Z,19.69
2023-09-09T01:31:07.855Z,19.73
2023-09-09T01:33:35.288Z,19.88
2023-09-09T01:36:04.100Z,19.90
2023-09-09T01:38:35.447Z,19.90
2023-09-09T01:41:07.003Z,19.93
2023-09-09T01:43:36.096Z,19.94
2023-09-09T01:46:04.027Z,19.97
2023-09-09T01:48:31.394Z,19.93
2023-09-09T01:50:58.681Z,19.91
2023-09-09T01:53:26.028Z,19.92
2023-09-09T01:55:53.416Z,19.74
2023-09-09T01:58:20.682Z,19.59
2023-09-09T02:00:49.067Z,19.16
2023-09-09T02:03:16.621Z,19.13
2023-09-09T02:05:43.847Z,19.10
2023-09-09T02:08:11.081Z,19.20
2023-09-09T02:10:38.213Z,19.47
2023-09-09T02:13:05.808Z,19.44
2023-09-09T02:15:33.265Z,19.31
2023-09-09T02:18:00.743Z,19.33
2023-09-09T02:20:28.001Z,19.28
2023-09-09T02:22:55.271Z,19.28
2023-09-09T02:25:22.554Z,19.31
2023-09-09T02:27:50.887Z,19.26
2023-09-09T02:30:18.504Z,19.38
2023-09-09T02:32:47.441Z,19.39
2023-09-09T02:35:15.888Z,19.42
2023-09-09T02:37:43.170Z,19.45
2023-09-09T02:40:11.337Z,19.54
2023-09-09T02:42:38.902Z,19.64
2023-09-09T02:45:07.330Z,19.71
2023-09-09T02:47:34.864Z,19.68
2023-09-09T02:50:04.196Z,19.61
2023-09-09T02:52:34.927Z,19.46
2023-09-09T02:55:02.604Z,19.44
2023-09-09T02:57:30.134Z,19.31
2023-09-09T02:59:58.546Z,19.26
2023-09-09T03:02:26.168Z,19.28
2023-09-09T03:04:53.568Z,19.22
2023-09-09T03:07:24.304Z,19.20
2023-09-09T03:09:51.796Z,19.14
2023-09-09T03:12:22.219Z,19.14
2023-09-09T03:14:49.925Z,19.07
2023-09-09T03:17:18.620Z,19.08
2023-09-09T03:19:46.748Z,19.12
2023-09-09T03:22:14.257Z,19.24
2023-09-09T03:24:41.395Z,19.24
2023-09-09T03:27:08.698Z,19.27
2023-09-09T03:29:36.093Z,19.39
2023-09-09T03:32:04.485Z,19.34
2023-09-09T03:34:31.835Z,19.21
2023-09-09T03:36:59.340Z,19.22
2023-09-09T03:39:26.717Z,19.18
2023-09-09T03:41:55.160Z,19.20
2023-09-09T03:44:22.732Z,19.28
2023-09-09T03:46:51.020Z,19.23
2023-09-09T03:49:18.807Z,19.16
2023-09-09T03:51:46.089Z,19.09
2023-09-09T03:54:13.438Z,19.16
2023-09-09T03:56:40.719Z,19.11
2023-09-09T03:59:08.393Z,19.06
2023-09-09T04:01:37.706Z,19.09
2023-09-09T04:04:05.261Z,19.03
2023-09-09T04:06:32.793Z,19.03
2023-09-09T04:09:00.147Z,19.15
2023-09-09T04:11:27.499Z,19.24
2023-09-09T04:13:55.016Z,19.29
2023-09-09T04:16:22.684Z,19.40
2023-09-09T04:18:50.396Z,19.37
2023-09-09T04:21:19.778Z,19.14
2023-09-09T04:23:47.112Z,19.32
2023-09-09T04:26:14.999Z,19.31
2023-09-09T04:28:42.732Z,19.30
2023-09-09T04:31:10.259Z,19.13
2023-09-09T04:33:41.238Z,19.09
2023-09-09T04:36:09.811Z,18.97
2023-09-09T04:38:39.796Z,19.24
2023-09-09T04:41:08.858Z,19.42
2023-09-09T04:43:36.306Z,19.48
2023-09-09T04:46:03.996Z,19.59
2023-09-09T04:48:32.147Z,19.65
2023-09-09T04:51:00.524Z,19.67
2023-09-09T04:53:28.597Z,19.77
2023-09-09T04:55:56.576Z,19.78
2023-09-09T04:58:24.139Z,19.75
2023-09-09T05:00:51.346Z,19.79
2023-09-09T05:03:27.582Z,19.83
2023-09-09T05:05:54.884Z,19.77
2023-09-09T05:08:22.272Z,19.72
2023-09-09T05:10:49.486Z,19.75
2023-09-09T05:13:16.717Z,19.67
2023-09-09T05:15:44.000Z,19.31
2023-09-09T05:18:17.714Z,19.02
2023-09-09T05:20:50.847Z,18.97
2023-09-09T05:23:23.064Z,18.88
2023-09-09T05:25:50.543Z,18.66
2023-09-09T05:28:17.872Z,18.70
2023-09-09T05:30:45.251Z,18.63
2023-09-09T05:33:12.908Z,18.57
2023-09-09T05:35:40.353Z,18.50
2023-09-09T05:38:07.546Z,18.64
2023-09-09T05:40:38.120Z,18.70
2023-09-09T05:43:05.336Z,18.62
2023-09-09T05:45:32.588Z,18.60
2023-09-09T05:48:00.024Z,18.53
2023-09-09T05:50:27.969Z,18.66
2023-09-09T05:52:58.333Z,19.08
2023-09-09T05:55:26.966Z,19.20
2023-09-09T05:57:54.229Z,19.38
2023-09-09T06:00:21.483Z,19.45
2023-09-09T06:02:49.558Z,19.40
2023-09-09T06:05:16.869Z,19.24
2023-09-09T06:07:45.542Z,19.14
2023-09-09T06:10:13.123Z,19.17
2023-09-09T06:12:40.379Z,19.13
2023-09-09T06:15:08.185Z,19.22
2023-09-09T06:17:37.420Z,19.19
2023-09-09T06:20:06.048Z,19.38
2023-09-09T06:22:35.323Z,19.56
2023-09-09T06:25:03.266Z,19.76
2023-09-09T06:27:31.247Z,19.82
2023-09-09T06:29:58.450Z,19.76
2023-09-09T06:32:25.719Z,19.68
2023-09-09T06:34:52.973Z,19.79
2023-09-09T06:37:20.149Z,19.82
2023-09-09T06:39:47.606Z,19.96
2023-09-09T06:42:15.934Z,20.17
2023-09-09T06:44:47.929Z,20.29
2023-09-09T06:47:15.134Z,20.47
2023-09-09T06:49:42.421Z,20.57
2023-09-09T06:52:09.607Z,20.70
2023-09-09T06:54:36.819Z,20.93
2023-09-09T06:57:04.245Z,21.49
2023-09-09T06:59:31.742Z,22.00
2023-09-09T07:01:58.876Z,22.45
2023-09-09T07:04:26.249Z,22.95
2023-09-09T07:07:11.636Z,23.34
2023-09-09T07:09:40.519Z,23.78
2023-09-09T07:12:10.762Z,23.71
2023-09-09T07:14:41.385Z,23.93
2023-09-09T07:17:09.539Z,24.19
2023-09-09T07:19:36.708Z,24.42
2023-09-09T07:22:03.973Z,24.61
2023-09-09T07:24:31.161Z,24.92
2023-09-09T07:27:04.872Z,25.09
2023-09-09T07:29:32.069Z,25.21
2023-09-09T07:31:59.221Z,25.37
2023-09-09T07:34:28.992Z,25.41
2023-09-09T07:36:56.059Z,25.35
2023-09-09T07:39:23.356Z,25.43
2023-09-09T07:41:50.442Z,25.69
2023-09-09T07:44:17.547Z,25.85
2023-09-09T07:46:44.877Z,25.98
2023-09-09T07:49:12.170Z,25.96
2023-09-09T07:51:39.320Z,25.97
2023-09-09T07:54:06.607Z,26.21
2023-09-09T07:56:33.945Z,26.36
2023-09-09T07:59:01.261Z,26.60
2023-09-09T08:01:28.441Z,27.03
2023-09-09T08:03:55.628Z,27.21
2023-09-09T08:06:22.903Z,27.38
2023-09-09T08:08:49.971Z,27.48
2023-09-09T08:11:18.592Z,27.77
2023-09-09T08:13:45.729Z,27.74
2023-09-09T08:16:13.019Z,27.73
2023-09-09T08:18:40.464Z,27.51
2023-09-09T08:21:07.730Z,27.36
2023-09-09T08:23:34.994Z,27.56
2023-09-09T08:26:03.144Z,27.38
2023-09-09T08:28:30.486Z,27.51
2023-09-09T08:31:03.821Z,27.65
2023-09-09T08:33:30.972Z,27.93
2023-09-09T08:36:02.295Z,28.18
2023-09-09T08:38:30.076Z,28.25
2023-09-09T08:41:03.725Z,28.33
2023-09-09T08:43:49.411Z,28.44
2023-09-09T08:46:18.472Z,28.38
2023-09-09T08:48:46.562Z,28.30
2023-09-09T08:51:20.084Z,28.05
2023-09-09T08:53:51.036Z,27.92
2023-09-09T08:56:19.154Z,28.27
2023-09-09T08:58:46.978Z,28.49
2023-09-09T09:01:16.098Z,28.67
2023-09-09T09:03:43.749Z,28.63
2023-09-09T09:06:11.304Z,28.16
2023-09-09T09:08:38.525Z,28.06
2023-09-09T09:11:08.045Z,27.76
2023-09-09T09:13:36.033Z,27.87
2023-09-09T09:16:03.719Z,27.95
2023-09-09T09:18:30.984Z,28.50
2023-09-09T09:21:08.689Z,28.81
2023-09-09T09:23:45.600Z,29.16
2023-09-09T09:26:28.743Z,28.67
2023-09-09T09:28:56.622Z,28.68
2023-09-09T09:31:25.285Z,28.97
2023-09-09T09:33:53.294Z,28.40
2023-09-09T09:36:22.000Z,28.48
2023-09-09T09:38:50.246Z,28.59
2023-09-09T09:41:18.081Z,28.70
2023-09-09T09:43:49.589Z,28.90
2023-09-09T09:46:23.604Z,29.19
2023-09-09T09:48:51.046Z,29.14
2023-09-09T09:51:18.301Z,29.26
2023-09-09T09:53:52.809Z,29.40
2023-09-09T09:56:21.018Z,29.42
2023-09-09T09:58:50.206Z,29.47
2023-09-09T10:01:17.530Z,29.71
2023-09-09T10:03:56.692Z,29.86
2023-09-09T10:06:29.769Z,29.79
2023-09-09T10:09:09.671Z,29.73
2023-09-09T10:12:01.012Z,29.48
2023-09-09T10:14:29.440Z,28.91
2023-09-09T10:16:58.003Z,28.59
2023-09-09T10:19:27.357Z,28.38
2023-09-09T10:21:56.330Z,28.17
2023-09-09T10:24:23.808Z,27.95
2023-09-09T10:26:51.823Z,27.53
2023-09-09T10:29:21.407Z,27.24
2023-09-09T10:31:51.151Z,27.06
2023-09-09T10:34:19.566Z,27.06
2023-09-09T10:37:01.177Z,27.00
2023-09-09T10:39:31.815Z,27.30
2023-09-09T10:41:59.835Z,27.52
2023-09-09T10:44:27.125Z,27.60
2023-09-09T10:46:56.891Z,27.59
2023-09-09T10:49:27.181Z,27.50
2023-09-09T10:51:54.488Z,27.34
2023-09-09T10:54:24.869Z,27.21
2023-09-09T10:56:54.319Z,27.01
2023-09-09T10:59:25.663Z,26.81
2023-09-09T11:02:13.374Z,26.61
2023-09-09T11:04:42.419Z,26.45
2023-09-09T11:07:14.620Z,26.58
2023-09-09T11:09:53.078Z,26.80
2023-09-09T11:12:27.419Z,26.98
2023-09-09T11:15:05.956Z,27.13
2023-09-09T11:17:38.358Z,27.12
2023-09-09T11:20:11.662Z,27.25
2023-09-09T11:22:41.065Z,27.18
2023-09-09T11:25:08.618Z,27.47
2023-09-09T11:27:35.813Z,27.47
2023-09-09T11:30:05.048Z,27.50
2023-09-09T11:32:33.599Z,27.56
2023-09-09T11:35:01.079Z,27.66
2023-09-09T11:37:30.079Z,27.46
2023-09-09T11:39:58.554Z,27.62
2023-09-09T11:42:25.971Z,27.82
2023-09-09T11:44:53.208Z,27.77
2023-09-09T11:47:20.763Z,27.55
2023-09-09T11:49:49.904Z,27.58
2023-09-09T11:52:21.251Z,27.54
2023-09-09T11:54:48.930Z,27.66
2023-09-09T11:57:16.152Z,27.64
2023-09-09T11:59:47.906Z,27.45
2023-09-09T12:02:21.009Z,27.46
2023-09-09T12:04:59.920Z,27.32
2023-09-09T12:07:32.555Z,27.48
2023-09-09T12:10:01.498Z,27.49
2023-09-09T12:12:29.693Z,27.59
2023-09-09T12:14:59.247Z,27.81
2023-09-09T12:17:30.749Z,27.86
2023-09-09T12:19:59.200Z,27.79
2023-09-09T12:22:38.016Z,27.81
2023-09-09T12:25:06.868Z,27.93
2023-09-09T12:27:45.587Z,28.08
2023-09-09T12:30:35.230Z,28.24
2023-09-09T12:33:07.470Z,28.21
2023-09-09T12:35:36.137Z,28.11
2023-09-09T12:38:04.530Z,28.14
2023-09-09T12:41:04.087Z,28.24
2023-09-09T12:43:32.089Z,28.21
2023-09-09T12:46:08.174Z,28.03
2023-09-09T12:48:56.576Z,27.86
2023-09-09T12:51:31.984Z,27.72
2023-09-09T12:54:00.047Z,27.78
2023-09-09T12:56:27.560Z,27.98
2023-09-09T12:58:54.742Z,28.17
2023-09-09T13:01:21.936Z,28.39
2023-09-09T13:03:49.153Z,28.54
2023-09-09T13:06:16.799Z,28.60
2023-09-09T13:08:44.367Z,28.35
2023-09-09T13:11:11.648Z,28.23
2023-09-09T13:13:39.512Z,28.22
2023-09-09T13:16:08.072Z,28.25
2023-09-09T13:18:35.718Z,28.19
2023-09-09T13:21:03.290Z,28.32
2023-09-09T13:23:32.890Z,28.36
2023-09-09T13:26:00.296Z,28.49
2023-09-09T13:28:27.462Z,28.37
2023-09-09T13:30:54.721Z,28.01
2023-09-09T13:33:22.341Z,27.96
2023-09-09T13:35:49.741Z,28.17
2023-09-09T13:38:16.976Z,28.10
2023-09-09T13:40:44.535Z,28.05
2023-09-09T13:43:11.855Z,28.23
2023-09-09T13:45:39.209Z,28.31
2023-09-09T13:48:06.490Z,28.39
2023-09-09T13:50:33.806Z,28.36
2023-09-09T13:53:01.575Z,28.14
2023-09-09T13:55:29.027Z,28.26
2023-09-09T13:57:56.217Z,28.36
2023-09-09T14:00:23.427Z,28.47
2023-09-09T14:02:50.735Z,28.47
2023-09-09T14:05:18.119Z,28.52
2023-09-09T14:07:48.358Z,28.51
2023-09-09T14:10:15.667Z,28.39
2023-09-09T14:12:43.223Z,28.32
2023-09-09T14:15:11.338Z,28.31
2023-09-09T14:17:38.709Z,28.20
2023-09-09T14:20:06.603Z,28.18
2023-09-09T14:22:33.749Z,28.20
2023-09-09T14:25:01.359Z,28.25
2023-09-09T14:27:29.059Z,28.30
2023-09-09T14:29:56.305Z,28.35
2023-09-09T14:32:23.567Z,28.35
2023-09-09T14:34:50.882Z,28.40
2023-09-09T14:37:18.124Z,28.43
2023-09-09T14:39:45.408Z,28.48
2023-09-09T14:42:12.665Z,28.48
2023-09-09T14:44:40.085Z,28.53
2023-09-09T14:47:07.281Z,28.53
2023-09-09T14:49:35.642Z,28.34
2023-09-09T14:52:04.476Z,28.12
2023-09-09T14:54:31.763Z,27.95
2023-09-09T14:56:59.142Z,27.97
2023-09-09T14:59:26.538Z,27.92
2023-09-09T15:01:53.917Z,27.76
2023-09-09T15:04:22.153Z,27.81
2023-09-09T15:06:52.566Z,27.88
2023-09-09T15:09:19.982Z,27.84
2023-09-09T15:11:47.614Z,27.76
2023-09-09T15:14:15.226Z,27.70
2023-09-09T15:16:47.809Z,27.73
2023-09-09T15:19:21.385Z,27.69
2023-09-09T15:21:49.071Z,27.65
2023-09-09T15:24:18.782Z,27.58
2023-09-09T15:26:46.256Z,27.58
2023-09-09T15:29:13.490Z,27.67
2023-09-09T15:31:40.809Z,27.62
2023-09-09T15:34:10.659Z,27.51
2023-09-09T15:36:39.858Z,27.47
2023-09-09T15:39:11.134Z,27.43
2023-09-09T15:41:39.355Z,27.42
2023-09-09T15:44:06.879Z,27.37
2023-09-09T15:46:34.794Z,27.34
2023-09-09T15:49:02.697Z,27.32
2023-09-09T15:51:33.134Z,27.28
2023-09-09T15:54:02.431Z,27.24
2023-09-09T15:56:29.741Z,27.13
2023-09-09T15:58:57.127Z,27.12
2023-09-09T16:01:24.690Z,27.13
2023-09-09T16:03:52.014Z,27.10
2023-09-09T16:06:19.452Z,27.05
2023-09-09T16:08:46.858Z,27.04
2023-09-09T16:11:14.218Z,27.06
2023-09-09T16:13:41.664Z,26.96
2023-09-09T16:16:10.856Z,26.94
2023-09-09T16:18:41.350Z,26.86
2023-09-09T16:21:10.149Z,26.80
2023-09-09T16:23:37.847Z,26.75
2023-09-09T16:26:06.234Z,26.77
2023-09-09T16:28:33.530Z,26.70
2023-09-09T16:31:05.605Z,26.69
2023-09-09T16:33:33.603Z,26.74
2023-09-09T16:36:05.797Z,26.68
2023-09-09T16:38:33.525Z,26.73
2023-09-09T16:41:00.825Z,26.64
2023-09-09T16:43:28.137Z,26.68
2023-09-09T16:45:56.619Z,26.55
2023-09-09T16:48:23.887Z,26.52
2023-09-09T16:50:51.576Z,26.38
2023-09-09T16:53:21.735Z,26.39
2023-09-09T16:55:50.141Z,26.33
2023-09-09T16:58:17.737Z,26.28
2023-09-09T17:00:47.626Z,26.25
2023-09-09T17:03:15.106Z,26.12
2023-09-09T17:05:50.478Z,26.06
2023-09-09T17:08:17.725Z,25.96
2023-09-09T17:10:45.185Z,25.90
2023-09-09T17:13:12.597Z,25.90
2023-09-09T17:15:42.763Z,25.89
2023-09-09T17:18:12.835Z,25.86
2023-09-09T17:20:41.236Z,25.79
2023-09-09T17:23:08.424Z,25.78
2023-09-09T17:25:36.399Z,25.72
2023-09-09T17:28:05.114Z,25.71
2023-09-09T17:30:32.401Z,25.65
2023-09-09T17:32:59.667Z,25.56
2023-09-09T17:35:28.676Z,25.51
2023-09-09T17:37:56.046Z,25.40
2023-09-09T17:40:23.233Z,25.33
2023-09-09T17:42:51.142Z,25.28
2023-09-09T17:45:18.478Z,25.17
2023-09-09T17:47:46.132Z,25.13
2023-09-09T17:50:13.362Z,25.07
2023-09-09T17:52:43.557Z,25.04
2023-09-09T17:55:12.337Z,25.01
2023-09-09T17:57:40.097Z,25.03
2023-09-09T18:00:09.054Z,24.96
2023-09-09T18:02:36.319Z,24.89
2023-09-09T18:05:03.838Z,24.88
2023-09-09T18:07:31.359Z,24.78
2023-09-09T18:09:58.485Z,24.75
2023-09-09T18:12:25.706Z,24.72
2023-09-09T18:14:52.899Z,24.64
2023-09-09T18:17:20.208Z,24.59
2023-09-09T18:19:47.716Z,24.50
2023-09-09T18:22:15.097Z,24.57
2023-09-09T18:24:42.363Z,24.50
2023-09-09T18:27:09.554Z,24.44
2023-09-09T18:29:36.748Z,24.51
2023-09-09T18:32:04.392Z,24.43
2023-09-09T18:34:31.663Z,24.34
2023-09-09T18:37:05.021Z,24.32
2023-09-09T18:39:33.412Z,24.26
2023-09-09T18:42:00.608Z,24.22
2023-09-09T18:44:27.833Z,24.20
2023-09-09T18:46:58.759Z,24.21
2023-09-09T18:49:28.006Z,24.19
2023-09-09T18:51:56.276Z,24.12
2023-09-09T18:54:23.930Z,24.08
2023-09-09T18:56:54.536Z,24.02
2023-09-09T18:59:22.078Z,23.98
2023-09-09T19:01:52.554Z,24.08
2023-09-09T19:04:22.003Z,23.94
2023-09-09T19:06:49.977Z,23.86
2023-09-09T19:09:19.236Z,23.87
2023-09-09T19:11:47.013Z,23.90
2023-09-09T19:14:14.326Z,23.88
2023-09-09T19:16:41.761Z,23.82
2023-09-09T19:19:10.442Z,23.87
2023-09-09T19:21:39.357Z,23.70
2023-09-09T19:24:08.390Z,23.64
2023-09-09T19:26:39.092Z,23.56
2023-09-09T19:29:06.575Z,23.54
2023-09-09T19:31:34.202Z,23.57
2023-09-09T19:34:01.569Z,23.45
2023-09-09T19:36:28.746Z,23.45
2023-09-09T19:38:55.930Z,23.40
2023-09-09T19:41:23.049Z,23.50
2023-09-09T19:43:50.311Z,23.28
2023-09-09T19:46:17.680Z,23.30
2023-09-09T19:48:45.143Z,23.24
2023-09-09T19:51:12.464Z,23.32
2023-09-09T19:53:39.642Z,23.16
2023-09-09T19:56:06.960Z,23.14
2023-09-09T19:58:34.367Z,23.09
2023-09-09T20:01:03.891Z,23.14
2023-09-09T20:03:31.871Z,23.12
2023-09-09T20:06:03.972Z,23.10
2023-09-09T20:08:31.423Z,23.11
2023-09-09T20:11:01.962Z,23.07
2023-09-09T20:13:29.536Z,22.95
2023-09-09T20:15:56.818Z,22.91
2023-09-09T20:18:24.358Z,22.96
2023-09-09T20:20:52.138Z,22.97
2023-09-09T20:23:21.479Z,22.88
2023-09-09T20:25:49.333Z,22.80
2023-09-09T20:28:16.517Z,22.76
2023-09-09T20:30:43.719Z,22.58
2023-09-09T20:33:11.072Z,22.65
2023-09-09T20:35:40.401Z,22.69
2023-09-09T20:38:08.440Z,22.61
2023-09-09T20:40:36.490Z,22.53
2023-09-09T20:43:03.939Z,22.61
2023-09-09T20:45:31.192Z,22.54
2023-09-09T20:47:58.512Z,22.54
2023-09-09T20:50:27.722Z,22.53
2023-09-09T20:52:55.885Z,22.50
2023-09-09T20:55:23.908Z,22.38
2023-09-09T20:57:51.504Z,22.31
2023-09-09T21:00:19.390Z,22.42
2023-09-09T21:02:48.513Z,22.31
2023-09-09T21:05:16.008Z,22.25
2023-09-09T21:07:43.637Z,22.19
2023-09-09T21:10:11.891Z,22.20
2023-09-09T21:12:42.121Z,22.19
2023-09-09T21:15:10.306Z,22.07
2023-09-09T21:17:37.621Z,22.13
2023-09-09T21:20:05.512Z,22.15
2023-09-09T21:25:00.916Z,21.93
2023-09-09T21:27:29.715Z,21.90
2023-09-09T21:29:57.325Z,21.91
2023-09-09T21:32:25.072Z,22.00
2023-09-09T21:34:52.428Z,22.02
2023-09-09T21:37:20.444Z,21.92
2023-09-09T21:39:48.389Z,21.80
2023-09-09T21:42:15.636Z,21.81
2023-09-09T21:44:46.178Z,21.71
2023-09-09T21:47:13.458Z,21.72
2023-09-09T21:49:40.780Z,21.71
2023-09-09T21:52:08.066Z,21.64
2023-09-09T21:54:35.227Z,21.57
2023-09-09T21:57:02.476Z,21.50
2023-09-09T21:59:29.651Z,21.62
2023-09-09T22:01:56.877Z,21.62
2023-09-09T22:04:24.165Z,21.60
2023-09-09T22:06:52.292Z,21.63
2023-09-09T22:09:21.788Z,21.58
2023-09-09T22:11:49.723Z,21.61
2023-09-09T22:14:19.435Z,21.49
2023-09-09T22:16:46.749Z,21.35
2023-09-09T22:19:14.139Z,21.36
2023-09-09T22:21:41.434Z,21.36
2023-09-09T22:24:08.823Z,21.40
2023-09-09T22:26:36.242Z,21.44
2023-09-09T22:29:04.628Z,21.37
2023-09-09T22:31:32.200Z,21.36
2023-09-09T22:33:59.549Z,21.33
2023-09-09T22:36:26.839Z,21.30
2023-09-09T22:38:55.415Z,21.28
2023-09-09T22:41:22.678Z,21.21
2023-09-09T22:43:49.918Z,21.18
2023-09-09T22:46:17.226Z,21.21
2023-09-09T22:48:44.399Z,21.17
2023-09-09T22:51:12.600Z,21.19
2023-09-09T22:53:39.769Z,21.32
2023-09-09T22:56:07.191Z,21.40
2023-09-09T22:58:35.148Z,21.47
2023-09-09T23:01:04.023Z,21.53
2023-09-09T23:03:33.534Z,21.65
2023-09-09T23:06:05.113Z,21.68
2023-09-09T23:08:33.328Z,21.73
2023-09-09T23:11:13.354Z,21.75
2023-09-09T23:13:41.524Z,21.75
2023-09-09T23:16:08.905Z,21.76
2023-09-09T23:18:37.447Z,21.82
2023-09-09T23:21:05.327Z,21.86
2023-09-09T23:23:32.522Z,21.91
2023-09-09T23:26:02.787Z,21.94
2023-09-09T23:28:30.434Z,21.83
2023-09-09T23:31:01.581Z,21.78
2023-09-09T23:33:34.428Z,21.76
2023-09-09T23:36:02.430Z,21.74
2023-09-09T23:38:30.354Z,21.72
2023-09-09T23:40:57.616Z,21.72
2023-09-09T23:43:27.954Z,21.72
2023-09-09T23:45:55.189Z,21.75
2023-09-09T23:48:22.460Z,21.68
2023-09-09T23:50:49.575Z,21.67
2023-09-09T23:53:18.103Z,21.60
2023-09-09T23:55:45.249Z,21.37
2023-09-09T23:58:12.616Z,21.31
